createdAt,value
2022-10-03T00:01:53.388Z,5.77
2022-10-03T00:04:39.101Z,5.57
2022-10-03T00:07:23.505Z,5.60
2022-10-03T00:10:25.481Z,5.77
2022-10-03T00:13:19.098Z,5.57
2022-10-03T00:15:54.290Z,5.40
2022-10-03T00:18:38.986Z,5.23
2022-10-03T00:21:22.105Z,5.10
2022-10-03T00:24:22.877Z,5.47
2022-10-03T00:27:20.850Z,5.70
2022-10-03T00:29:55.730Z,5.87
2022-10-03T00:32:36.761Z,5.77
2022-10-03T00:35:34.001Z,5.63
2022-10-03T00:38:30.937Z,5.07
2022-10-03T00:42:01.435Z,5.03
2022-10-03T00:44:35.033Z,5.07
2022-10-03T00:47:28.346Z,4.73
2022-10-03T00:50:17.878Z,4.63
2022-10-03T00:53:13.146Z,5.07
2022-10-03T00:56:00.970Z,4.35
2022-10-03T00:58:31.740Z,5.00
2022-10-03T01:01:19.726Z,5.30
2022-10-03T01:04:18.615Z,4.77
2022-10-03T01:07:10.989Z,5.17
2022-10-03T01:10:28.172Z,5.03
2022-10-03T01:13:06.878Z,4.83
2022-10-03T01:15:40.775Z,4.50
2022-10-03T01:18:15.841Z,4.37
2022-10-03T01:23:44.209Z,4.72
2022-10-03T01:26:11.719Z,4.43
2022-10-03T01:29:20.450Z,4.23
2022-10-03T01:32:19.438Z,3.93
2022-10-03T01:34:44.234Z,4.50
2022-10-03T01:37:12.230Z,4.43
2022-10-03T01:40:08.959Z,4.80
2022-10-03T01:43:21.135Z,4.67
2022-10-03T01:46:17.260Z,5.83
2022-10-03T01:49:17.995Z,6.23
2022-10-03T01:51:54.997Z,6.13
2022-10-03T01:54:36.987Z,5.57
2022-10-03T01:57:16.011Z,5.70
2022-10-03T02:00:12.494Z,6.20
2022-10-03T02:02:47.131Z,6.37
2022-10-03T02:05:28.836Z,7.30
2022-10-03T02:08:12.755Z,7.23
2022-10-03T02:11:00.671Z,6.73
2022-10-03T02:13:50.182Z,6.37
2022-10-03T02:16:43.426Z,6.67
2022-10-03T02:19:21.336Z,6.67
2022-10-03T02:21:53.841Z,6.67
2022-10-03T02:24:15.703Z,6.40
2022-10-03T02:27:28.911Z,6.33
2022-10-03T02:30:14.007Z,5.83
2022-10-03T02:33:15.805Z,6.20
2022-10-03T02:36:14.803Z,6.87
2022-10-03T02:39:14.158Z,6.20
2022-10-03T02:42:25.371Z,6.03
2022-10-03T02:45:22.566Z,6.47
2022-10-03T02:48:30.670Z,5.97
2022-10-03T02:51:18.200Z,6.67
2022-10-03T02:54:07.835Z,6.23
2022-10-03T02:57:06.963Z,6.63
2022-10-03T02:59:53.516Z,6.50
2022-10-03T03:02:39.906Z,6.10
2022-10-03T03:05:26.033Z,6.10
2022-10-03T03:08:06.415Z,5.93
2022-10-03T03:11:23.806Z,5.80
2022-10-03T03:14:29.217Z,5.70
2022-10-03T03:17:26.801Z,6.10
2022-10-03T03:20:07.864Z,5.60
2022-10-03T03:22:57.399Z,5.80
2022-10-03T03:25:43.775Z,5.20
2022-10-03T03:28:55.692Z,5.87
2022-10-03T03:31:31.725Z,4.83
2022-10-03T03:34:22.886Z,5.43
2022-10-03T03:37:02.953Z,5.50
2022-10-03T03:40:03.709Z,5.07
2022-10-03T03:42:46.603Z,5.50
2022-10-03T03:45:14.218Z,5.13
2022-10-03T03:47:55.235Z,5.27
2022-10-03T03:50:43.383Z,5.57
2022-10-03T03:53:21.850Z,6.10
2022-10-03T03:56:10.753Z,5.50
2022-10-03T03:58:40.662Z,6.13
2022-10-03T04:01:42.941Z,5.80
2022-10-03T04:04:20.105Z,5.57
2022-10-03T04:07:21.518Z,5.23
2022-10-03T04:10:08.985Z,5.17
2022-10-03T04:13:13.951Z,6.27
2022-10-03T04:16:39.613Z,5.73
2022-10-03T04:19:39.765Z,6.37
2022-10-03T04:22:22.196Z,6.10
2022-10-03T04:25:05.530Z,6.23
2022-10-03T04:27:57.890Z,5.60
2022-10-03T04:30:34.046Z,5.80
2022-10-03T04:33:10.779Z,5.70
2022-10-03T04:36:29.855Z,5.50
2022-10-03T04:39:28.735Z,5.83
2022-10-03T04:42:28.280Z,6.10
2022-10-03T04:44:56.288Z,5.90
2022-10-03T04:47:43.252Z,5.60
2022-10-03T04:50:35.489Z,5.37
2022-10-03T04:53:13.139Z,5.50
2022-10-03T04:56:12.859Z,6.40
2022-10-03T04:58:52.171Z,6.67
2022-10-03T05:02:04.291Z,6.07
2022-10-03T05:05:16.959Z,5.63
2022-10-03T05:08:01.719Z,7.70
2022-10-03T05:10:59.409Z,6.93
2022-10-03T05:13:53.668Z,7.00
2022-10-03T05:16:24.755Z,6.30
2022-10-03T05:19:20.718Z,6.93
2022-10-03T05:21:56.579Z,6.73
2022-10-03T05:24:24.457Z,7.20
2022-10-03T05:27:04.474Z,7.13
2022-10-03T05:29:40.839Z,6.60
2022-10-03T05:32:36.220Z,6.73
2022-10-03T05:35:43.079Z,6.60
2022-10-03T05:38:30.483Z,6.87
2022-10-03T05:41:26.482Z,6.73
2022-10-03T05:44:19.338Z,6.63
2022-10-03T05:46:52.859Z,6.23
2022-10-03T05:49:53.244Z,6.73
2022-10-03T05:52:47.034Z,6.83
2022-10-03T05:55:45.510Z,6.10
2022-10-03T05:58:11.096Z,5.93
2022-10-03T06:01:03.771Z,5.43
2022-10-03T06:04:05.946Z,5.30
2022-10-03T06:07:25.135Z,5.77
2022-10-03T06:10:20.693Z,5.47
2022-10-03T06:13:23.349Z,5.50
2022-10-03T06:16:17.646Z,5.07
2022-10-03T06:19:26.158Z,5.63
2022-10-03T06:22:39.513Z,6.90
2022-10-03T06:25:26.428Z,6.87
2022-10-03T06:28:04.715Z,7.60
2022-10-03T06:31:20.386Z,6.87
2022-10-03T06:34:24.269Z,7.40
2022-10-03T06:37:07.799Z,7.23
2022-10-03T06:40:22.189Z,7.90
2022-10-03T06:43:19.207Z,7.30
2022-10-03T06:46:07.671Z,7.07
2022-10-03T06:49:31.170Z,6.87
2022-10-03T06:52:25.360Z,6.50
2022-10-03T06:55:31.601Z,5.70
2022-10-03T06:57:56.312Z,6.93
2022-10-03T07:01:01.740Z,7.33
2022-10-03T07:03:48.413Z,8.13
2022-10-03T07:06:46.149Z,7.60
2022-10-03T07:09:41.227Z,7.77
2022-10-03T07:12:39.429Z,8.13
2022-10-03T07:15:16.576Z,9.07
2022-10-03T07:17:41.505Z,8.97
2022-10-03T07:20:30.920Z,8.60
2022-10-03T07:23:40.441Z,9.00
2022-10-03T07:26:44.790Z,8.50
2022-10-03T07:29:28.005Z,9.27
2022-10-03T07:32:10.108Z,9.53
2022-10-03T07:35:05.948Z,8.60
2022-10-03T07:37:58.696Z,9.00
2022-10-03T07:40:36.879Z,8.73
2022-10-03T07:43:20.386Z,8.60
2022-10-03T07:46:30.334Z,8.63
2022-10-03T07:49:18.792Z,8.30
2022-10-03T07:52:02.191Z,8.67
2022-10-03T07:54:44.168Z,8.57
2022-10-03T07:57:58.238Z,8.97
2022-10-03T08:01:13.504Z,8.33
2022-10-03T08:04:09.234Z,9.07
2022-10-03T08:06:44.854Z,8.57
2022-10-03T08:09:31.444Z,8.80
2022-10-03T08:12:31.575Z,9.17
2022-10-03T08:15:04.998Z,9.57
2022-10-03T08:17:49.783Z,8.57
2022-10-03T08:20:31.732Z,8.68
2022-10-03T08:23:05.624Z,7.33
2022-10-03T08:25:55.225Z,7.70
2022-10-03T08:28:51.965Z,7.10
2022-10-03T08:31:36.218Z,8.13
2022-10-03T08:34:23.661Z,7.70
2022-10-03T08:37:39.912Z,7.83
2022-10-03T08:40:40.543Z,7.70
2022-10-03T08:43:54.937Z,6.77
2022-10-03T08:46:37.844Z,7.60
2022-10-03T08:49:43.328Z,7.10
2022-10-03T08:52:21.362Z,6.45
2022-10-03T08:55:20.725Z,6.73
2022-10-03T08:58:38.400Z,6.30
2022-10-03T09:01:23.441Z,6.57
2022-10-03T09:04:50.196Z,6.00
2022-10-03T09:07:46.252Z,5.93
2022-10-03T09:10:53.643Z,6.43
2022-10-03T09:13:37.058Z,6.93
2022-10-03T09:16:36.824Z,5.80
2022-10-03T09:19:33.163Z,5.40
2022-10-03T09:22:13.496Z,5.70
2022-10-03T09:25:26.317Z,5.50
2022-10-03T09:28:34.179Z,5.27
2022-10-03T09:31:26.268Z,5.60
2022-10-03T09:34:44.175Z,5.10
2022-10-03T09:37:45.024Z,5.10
2022-10-03T09:40:34.887Z,4.73
2022-10-03T09:43:22.429Z,5.10
2022-10-03T09:46:21.306Z,4.17
2022-10-03T09:49:17.206Z,4.60
2022-10-03T09:52:14.435Z,4.20
2022-10-03T09:54:55.017Z,4.30
2022-10-03T09:58:21.404Z,4.20
2022-10-03T10:01:07.418Z,4.20
2022-10-03T10:03:47.682Z,3.50
2022-10-03T10:06:58.709Z,3.43
2022-10-03T10:09:47.436Z,3.27
2022-10-03T10:13:05.709Z,3.50
2022-10-03T10:16:01.634Z,3.67
2022-10-03T10:19:14.279Z,3.40
2022-10-03T10:22:00.493Z,2.90
2022-10-03T10:25:24.851Z,3.37
2022-10-03T10:28:14.337Z,3.60
2022-10-03T10:30:39.222Z,3.10
2022-10-03T10:33:37.894Z,3.42
2022-10-03T10:36:47.719Z,3.70
2022-10-03T10:39:28.615Z,2.97
2022-10-03T10:42:32.527Z,2.67
2022-10-03T10:45:28.466Z,2.80
2022-10-03T10:48:11.309Z,3.13
2022-10-03T10:51:23.916Z,3.13
2022-10-03T10:55:05.949Z,3.17
2022-10-03T10:58:32.963Z,3.15
2022-10-03T11:01:13.724Z,2.53
2022-10-03T11:04:42.069Z,2.95
2022-10-03T11:07:40.862Z,2.83
2022-10-03T11:10:39.732Z,3.20
2022-10-03T11:13:41.868Z,2.87
2022-10-03T11:16:47.176Z,2.53
2022-10-03T11:20:00.353Z,2.80
2022-10-03T11:22:49.920Z,2.60
2022-10-03T11:26:11.630Z,2.77
2022-10-03T11:29:29.079Z,2.87
2022-10-03T11:32:34.170Z,2.87
2022-10-03T11:35:55.572Z,3.00
2022-10-03T11:38:24.619Z,2.60
2022-10-03T11:41:01.583Z,3.05
2022-10-03T11:43:46.068Z,2.40
2022-10-03T11:46:07.864Z,2.22
2022-10-03T11:48:46.715Z,2.20
2022-10-03T11:51:25.374Z,2.10
2022-10-03T11:54:31.611Z,2.43
2022-10-03T11:57:09.556Z,2.60
2022-10-03T11:59:54.741Z,2.20
2022-10-03T12:02:34.581Z,2.15
2022-10-03T12:05:34.628Z,1.90
2022-10-03T12:08:37.802Z,2.40
2022-10-03T12:11:22.107Z,2.20
2022-10-03T12:14:11.301Z,2.45
2022-10-03T12:17:06.928Z,1.92
2022-10-03T12:19:38.166Z,2.30
2022-10-03T12:22:13.814Z,2.05
2022-10-03T12:24:43.125Z,2.20
2022-10-03T12:27:20.585Z,2.30
2022-10-03T12:29:54.911Z,2.25
2022-10-03T12:32:53.945Z,1.95
2022-10-03T12:35:29.711Z,1.80
2022-10-03T12:38:06.582Z,1.83
2022-10-03T12:40:44.018Z,1.70
2022-10-03T12:43:45.013Z,1.70
2022-10-03T12:46:15.539Z,1.88
2022-10-03T12:48:48.436Z,1.63
2022-10-03T12:51:45.882Z,1.63
2022-10-03T12:54:49.516Z,1.80
2022-10-03T12:57:59.200Z,1.80
2022-10-03T13:00:55.856Z,1.73
2022-10-03T13:03:34.675Z,1.75
2022-10-03T13:06:26.677Z,1.50
2022-10-03T13:10:03.656Z,1.58
2022-10-03T13:12:39.241Z,1.80
2022-10-03T13:15:19.726Z,1.90
2022-10-03T13:18:00.994Z,2.05
2022-10-03T13:20:45.584Z,1.98
2022-10-03T13:23:32.172Z,2.00
2022-10-03T13:26:18.134Z,2.10
2022-10-03T13:29:13.244Z,1.67
2022-10-03T13:32:01.393Z,1.80
2022-10-03T13:34:30.547Z,1.90
2022-10-03T13:37:12.206Z,1.70
2022-10-03T13:39:47.775Z,1.92
2022-10-03T13:42:13.530Z,2.00
2022-10-03T13:44:40.337Z,1.67
2022-10-03T13:47:35.289Z,1.88
2022-10-03T13:50:02.719Z,1.65
2022-10-03T13:52:36.692Z,2.30
2022-10-03T13:55:28.333Z,2.22
2022-10-03T13:58:29.139Z,1.85
2022-10-03T14:01:21.862Z,1.80
2022-10-03T14:04:05.595Z,1.92
2022-10-03T14:07:07.798Z,1.73
2022-10-03T14:09:55.680Z,1.60
2022-10-03T14:12:54.505Z,1.92
2022-10-03T14:15:35.063Z,2.08
2022-10-03T14:18:17.300Z,2.30
2022-10-03T14:21:27.090Z,1.83
2022-10-03T14:24:28.593Z,1.80
2022-10-03T14:27:13.899Z,2.17
2022-10-03T14:32:47.187Z,1.92
2022-10-03T14:35:38.688Z,2.47
2022-10-03T14:38:24.927Z,2.00
2022-10-03T14:40:52.194Z,1.70
2022-10-03T14:43:23.919Z,2.13
2022-10-03T14:45:53.945Z,1.97
2022-10-03T14:48:35.707Z,2.00
2022-10-03T14:51:24.989Z,2.55
2022-10-03T14:53:57.357Z,2.15
2022-10-03T14:56:20.879Z,2.28
2022-10-03T14:58:52.219Z,2.00
2022-10-03T15:01:21.573Z,2.05
2022-10-03T15:03:58.536Z,2.17
2022-10-03T15:06:35.672Z,2.00
2022-10-03T15:09:02.517Z,1.83
2022-10-03T15:11:31.101Z,1.88
2022-10-03T15:14:14.262Z,2.10
2022-10-03T15:16:52.263Z,2.17
2022-10-03T15:19:21.030Z,2.00
2022-10-03T15:21:51.858Z,2.63
2022-10-03T15:24:25.679Z,2.45
2022-10-03T15:26:57.537Z,2.23
2022-10-03T15:29:24.384Z,2.42
2022-10-03T15:31:51.246Z,2.67
2022-10-03T15:34:25.633Z,2.43
2022-10-03T15:36:57.510Z,2.47
2022-10-03T15:39:30.249Z,2.07
2022-10-03T15:42:01.154Z,2.60
2022-10-03T15:44:39.456Z,2.07
2022-10-03T15:47:27.327Z,1.63
2022-10-03T15:50:15.398Z,2.00
2022-10-03T15:53:34.629Z,2.30
2022-10-03T15:56:19.867Z,2.83
2022-10-03T15:58:56.377Z,2.73
2022-10-03T16:01:27.111Z,2.43
2022-10-03T16:03:57.910Z,2.80
2022-10-03T16:06:34.906Z,2.20
2022-10-03T16:09:11.929Z,2.60
2022-10-03T16:11:54.775Z,2.30
2022-10-03T16:14:27.358Z,2.50
2022-10-03T16:17:21.795Z,2.30
2022-10-03T16:20:00.902Z,2.80
2022-10-03T16:22:31.001Z,3.57
2022-10-03T16:25:16.329Z,3.97
2022-10-03T16:27:45.104Z,3.20
2022-10-03T16:30:09.862Z,3.40
2022-10-03T16:32:38.581Z,4.50
2022-10-03T16:35:03.734Z,5.30
2022-10-03T16:37:29.931Z,4.37
2022-10-03T16:40:02.705Z,4.50
2022-10-03T16:42:36.045Z,3.53
2022-10-03T16:45:01.555Z,3.30
2022-10-03T16:47:36.300Z,3.53
2022-10-03T16:50:19.488Z,3.33
2022-10-03T16:52:46.980Z,3.13
2022-10-03T16:55:35.046Z,2.77
2022-10-03T16:58:25.129Z,4.77
2022-10-03T17:01:26.280Z,3.53
2022-10-03T17:03:51.773Z,5.00
2022-10-03T17:06:29.605Z,6.77
2022-10-03T17:08:58.039Z,6.50
2022-10-03T17:11:27.463Z,6.50
2022-10-03T17:13:55.485Z,7.40
2022-10-03T17:16:47.290Z,7.23
2022-10-03T17:19:32.231Z,7.57
2022-10-03T17:22:03.676Z,7.22
2022-10-03T17:24:35.984Z,56.50
2022-10-03T17:27:07.348Z,31.83
2022-10-03T17:29:42.261Z,23.13
2022-10-03T17:32:22.380Z,17.05
2022-10-03T17:34:58.598Z,20.30
2022-10-03T17:37:48.034Z,18.60
2022-10-03T17:40:33.478Z,16.50
2022-10-03T17:43:05.475Z,17.10
2022-10-03T17:45:52.948Z,17.23
2022-10-03T17:48:26.106Z,16.47
2022-10-03T17:51:31.827Z,14.57
2022-10-03T17:53:59.449Z,14.43
2022-10-03T17:56:24.506Z,14.83
2022-10-03T17:58:56.064Z,13.63
2022-10-03T18:01:34.747Z,12.60
2022-10-03T18:04:02.424Z,13.27
2022-10-03T18:06:38.498Z,12.37
2022-10-03T18:09:18.633Z,7.70
2022-10-03T18:11:43.922Z,6.20
2022-10-03T18:14:18.166Z,5.53
2022-10-03T18:16:59.185Z,4.75
2022-10-03T18:19:48.938Z,4.60
2022-10-03T18:22:18.776Z,13.90
2022-10-03T18:24:51.953Z,15.03
2022-10-03T18:27:53.333Z,32.80
2022-10-03T18:30:20.150Z,14.37
2022-10-03T18:32:45.602Z,13.03
2022-10-03T18:35:29.116Z,11.13
2022-10-03T18:38:14.221Z,7.43
2022-10-03T18:40:48.451Z,4.88
2022-10-03T18:43:58.829Z,4.68
2022-10-03T18:46:42.669Z,4.90
2022-10-03T18:49:36.105Z,4.50
2022-10-03T18:52:16.548Z,4.37
2022-10-03T18:54:58.214Z,7.00
2022-10-03T18:57:46.390Z,8.23
2022-10-03T19:00:25.002Z,6.67
2022-10-03T19:03:01.928Z,7.10
2022-10-03T19:05:33.149Z,7.10
2022-10-03T19:08:29.624Z,7.70
2022-10-03T19:11:21.564Z,6.97
2022-10-03T19:14:12.904Z,6.80
2022-10-03T19:16:47.441Z,5.80
2022-10-03T19:19:24.535Z,12.43
2022-10-03T19:21:48.150Z,7.10
2022-10-03T19:24:46.482Z,7.43
2022-10-03T19:27:17.841Z,9.13
2022-10-03T19:29:48.181Z,7.53
2022-10-03T19:32:47.965Z,7.03
2022-10-03T19:35:18.936Z,7.93
2022-10-03T19:37:47.268Z,9.30
2022-10-03T19:40:24.159Z,8.47
2022-10-03T19:42:52.685Z,8.50
2022-10-03T19:45:19.769Z,8.77
2022-10-03T19:48:00.739Z,8.80
2022-10-03T19:50:42.855Z,9.07
2022-10-03T19:53:16.172Z,7.67
2022-10-03T19:55:39.497Z,8.60
2022-10-03T19:58:11.735Z,7.43
2022-10-03T20:00:39.344Z,7.10
2022-10-03T20:03:32.159Z,6.77
2022-10-03T20:06:11.432Z,7.20
2022-10-03T20:08:52.760Z,6.80
2022-10-03T20:11:47.101Z,7.73
2022-10-03T20:14:17.334Z,7.63
2022-10-03T20:16:46.542Z,6.57
2022-10-03T20:19:25.992Z,6.23
2022-10-03T20:21:56.752Z,6.50
2022-10-03T20:24:28.481Z,6.47
2022-10-03T20:27:19.438Z,6.50
2022-10-03T20:30:33.246Z,7.10
2022-10-03T20:32:59.325Z,7.40
2022-10-03T20:35:46.800Z,8.00
2022-10-03T20:38:42.543Z,9.30
2022-10-03T20:44:06.365Z,7.60
2022-10-03T20:46:46.789Z,9.17
2022-10-03T20:49:11.478Z,9.43
2022-10-03T20:51:54.726Z,8.97
2022-10-03T20:54:24.783Z,10.07
2022-10-03T20:57:00.702Z,9.93
2022-10-03T20:59:49.178Z,7.97
2022-10-03T21:02:40.578Z,7.23
2022-10-03T21:05:15.273Z,7.77
2022-10-03T21:07:56.400Z,8.52
2022-10-03T21:10:31.076Z,9.23
2022-10-03T21:13:08.385Z,10.75
2022-10-03T21:16:08.317Z,14.20
2022-10-03T21:18:40.505Z,11.53
2022-10-03T21:21:16.182Z,11.97
2022-10-03T21:23:56.512Z,11.03
2022-10-03T21:26:27.670Z,12.20
2022-10-03T21:28:49.596Z,15.53
2022-10-03T21:31:42.517Z,14.63
2022-10-03T21:34:27.019Z,13.77
2022-10-03T21:37:06.292Z,12.63
2022-10-03T21:39:53.738Z,13.03
2022-10-03T21:42:37.297Z,12.23
2022-10-03T21:45:32.830Z,12.17
2022-10-03T21:48:13.430Z,13.20
2022-10-03T21:51:18.055Z,11.80
2022-10-03T21:53:56.416Z,9.87
2022-10-03T21:56:54.958Z,10.40
2022-10-03T21:59:49.914Z,10.70
2022-10-03T22:02:55.541Z,10.57
2022-10-03T22:05:37.439Z,11.38
2022-10-03T22:07:59.564Z,11.10
2022-10-03T22:10:28.660Z,10.60
2022-10-03T22:13:04.772Z,10.30
2022-10-03T22:15:49.973Z,10.00
2022-10-03T22:18:16.984Z,10.00
2022-10-03T22:21:01.923Z,10.33
2022-10-03T22:23:37.667Z,10.90
2022-10-03T22:26:20.986Z,10.80
2022-10-03T22:28:48.857Z,10.43
2022-10-03T22:31:25.861Z,10.40
2022-10-03T22:34:44.076Z,10.17
2022-10-03T22:37:06.354Z,9.97
2022-10-03T22:39:29.625Z,10.13
2022-10-03T22:41:57.445Z,10.13
2022-10-03T22:44:27.919Z,10.07
2022-10-03T22:46:54.562Z,9.57
2022-10-03T22:49:44.095Z,9.97
2022-10-03T22:52:18.648Z,9.70
2022-10-03T22:54:45.932Z,11.15
2022-10-03T22:57:12.719Z,11.47
2022-10-03T22:59:54.271Z,11.53
2022-10-03T23:02:19.070Z,11.47
2022-10-03T23:04:56.388Z,11.17
2022-10-03T23:07:39.318Z,11.10
2022-10-03T23:10:16.264Z,10.60
2022-10-03T23:13:12.378Z,11.13
2022-10-03T23:15:39.734Z,10.90
2022-10-03T23:18:48.076Z,9.50
2022-10-03T23:21:12.480Z,9.30
2022-10-03T23:23:53.685Z,9.25
2022-10-03T23:27:19.197Z,8.83
2022-10-03T23:29:41.019Z,8.67
2022-10-03T23:32:07.164Z,7.63
2022-10-03T23:34:35.166Z,8.70
2022-10-03T23:37:15.894Z,8.27
2022-10-03T23:39:53.249Z,7.37
2022-10-03T23:42:43.595Z,7.67
2022-10-03T23:45:09.998Z,7.70
2022-10-03T23:47:47.420Z,6.80
2022-10-03T23:50:18.733Z,9.20
2022-10-03T23:52:51.335Z,10.83
2022-10-03T23:55:31.718Z,11.13
2022-10-03T23:57:54.433Z,12.57
